sensor_id;sensor_type;location;lat;lon;timestamp;P1;durP1;ratioP1;P2;durP2;ratioP2
12222;SDS011;6174;49.058;8.524;2023-07-31T05:01:30;4.23;;;2.10;;
12222;SDS011;6174;49.058;8.524;2023-07-31T05:03:57;3.40;;;1.83;;
12222;SDS011;6174;49.058;8.524;2023-07-31T05:06:24;2.57;;;1.63;;
12222;SDS011;6174;49.058;8.524;2023-07-31T05:08:50;2.47;;;1.90;;
12222;SDS011;6174;49.058;8.524;2023-07-31T05:11:17;3.47;;;2.07;;
12222;SDS011;6174;49.058;8.524;2023-07-31T05:13:44;2.67;;;2.00;;
12222;SDS011;6174;49.058;8.524;2023-07-31T05:16:11;4.47;;;2.27;;
12222;SDS011;6174;49.058;8.524;2023-07-31T05:18:38;2.63;;;2.00;;
12222;SDS011;6174;49.058;8.524;2023-07-31T05:21:04;2.73;;;1.90;;
12222;SDS011;6174;49.058;8.524;2023-07-31T05:23:32;1.73;;;1.60;;
12222;SDS011;6174;49.058;8.524;2023-07-31T05:26:02;3.23;;;2.37;;
12222;SDS011;6174;49.058;8.524;2023-07-31T05:28:29;2.20;;;1.70;;
12222;SDS011;6174;49.058;8.524;2023-07-31T05:30:58;2.43;;;1.80;;
12222;SDS011;6174;49.058;8.524;2023-07-31T05:33:25;2.60;;;1.90;;
12222;SDS011;6174;49.058;8.524;2023-07-31T05:35:53;2.60;;;1.90;;
12222;SDS011;6174;49.058;8.524;2023-07-31T05:38:20;2.77;;;1.70;;
12222;SDS011;6174;49.058;8.524;2023-07-31T05:40:47;2.50;;;2.20;;
12222;SDS011;6174;49.058;8.524;2023-07-31T05:43:14;4.53;;;2.00;;
12222;SDS011;6174;49.058;8.524;2023-07-31T05:45:41;2.90;;;2.13;;
12222;SDS011;6174;49.058;8.524;2023-07-31T05:48:08;3.27;;;1.97;;
12222;SDS011;6174;49.058;8.524;2023-07-31T05:50:35;5.13;;;2.10;;
12222;SDS011;6174;49.058;8.524;2023-07-31T05:53:05;3.37;;;1.90;;
12222;SDS011;6174;49.058;8.524;2023-07-31T05:55:33;4.20;;;2.20;;
12222;SDS011;6174;49.058;8.524;2023-07-31T05:57:59;4.43;;;2.10;;
12222;SDS011;6174;49.058;8.524;2023-07-31T06:00:26;4.93;;;2.40;;
12222;SDS011;6174;49.058;8.524;2023-07-31T06:02:53;4.57;;;2.07;;
12222;SDS011;6174;49.058;8.524;2023-07-31T06:05:20;3.40;;;2.27;;
12222;SDS011;6174;49.058;8.524;2023-07-31T06:07:47;3.97;;;2.10;;
12222;SDS011;6174;49.058;8.524;2023-07-31T06:10:15;2.20;;;1.70;;
12222;SDS011;6174;49.058;8.524;2023-07-31T06:12:42;3.37;;;2.00;;
12222;SDS011;6174;49.058;8.524;2023-07-31T06:15:09;2.57;;;1.83;;
12222;SDS011;6174;49.058;8.524;2023-07-31T06:17:36;4.70;;;2.20;;
12222;SDS011;6174;49.058;8.524;2023-07-31T06:20:03;2.90;;;2.47;;
12222;SDS011;6174;49.058;8.524;2023-07-31T06:22:30;2.60;;;2.10;;
12222;SDS011;6174;49.058;8.524;2023-07-31T06:24:57;5.07;;;2.10;;
12222;SDS011;6174;49.058;8.524;2023-07-31T06:27:26;2.93;;;1.90;;
12222;SDS011;6174;49.058;8.524;2023-07-31T06:29:52;2.50;;;2.00;;
12222;SDS011;6174;49.058;8.524;2023-07-31T06:32:19;2.77;;;2.10;;
12222;SDS011;6174;49.058;8.524;2023-07-31T06:34:46;3.20;;;2.33;;
12222;SDS011;6174;49.058;8.524;2023-07-31T06:37:13;3.27;;;2.13;;
12222;SDS011;6174;49.058;8.524;2023-07-31T06:39:39;4.40;;;1.90;;
12222;SDS011;6174;49.058;8.524;2023-07-31T06:42:06;3.83;;;2.20;;
12222;SDS011;6174;49.058;8.524;2023-07-31T06:44:34;3.97;;;2.50;;
12222;SDS011;6174;49.058;8.524;2023-07-31T06:47:01;4.40;;;2.07;;
12222;SDS011;6174;49.058;8.524;2023-07-31T06:49:28;3.30;;;2.20;;
12222;SDS011;6174;49.058;8.524;2023-07-31T06:51:55;3.53;;;2.10;;
12222;SDS011;6174;49.058;8.524;2023-07-31T06:54:21;5.07;;;2.20;;
12222;SDS011;6174;49.058;8.524;2023-07-31T06:56:48;3.90;;;2.47;;
12222;SDS011;6174;49.058;8.524;2023-07-31T06:59:15;2.50;;;1.87;;
12222;SDS011;6174;49.058;8.524;2023-07-31T07:01:43;3.87;;;2.20;;
12222;SDS011;6174;49.058;8.524;2023-07-31T07:04:10;2.97;;;2.00;;
12222;SDS011;6174;49.058;8.524;2023-07-31T07:06:36;4.40;;;2.30;;
12222;SDS011;6174;49.058;8.524;2023-07-31T07:09:03;4.57;;;2.40;;
12222;SDS011;6174;49.058;8.524;2023-07-31T07:11:30;2.87;;;2.03;;
12222;SDS011;6174;49.058;8.524;2023-07-31T07:13:57;3.30;;;2.40;;
12222;SDS011;6174;49.058;8.524;2023-07-31T07:16:24;2.87;;;2.23;;
12222;SDS011;6174;49.058;8.524;2023-07-31T07:18:52;3.57;;;2.03;;
12222;SDS011;6174;49.058;8.524;2023-07-31T07:21:19;4.83;;;2.20;;
12222;SDS011;6174;49.058;8.524;2023-07-31T07:23:46;3.50;;;2.20;;
12222;SDS011;6174;49.058;8.524;2023-07-31T07:26:12;2.60;;;2.13;;
12222;SDS011;6174;49.058;8.524;2023-07-31T07:28:39;6.00;;;2.47;;
12222;SDS011;6174;49.058;8.524;2023-07-31T07:31:06;3.50;;;2.20;;
12222;SDS011;6174;49.058;8.524;2023-07-31T07:33:33;4.50;;;2.10;;
12222;SDS011;6174;49.058;8.524;2023-07-31T07:36:01;5.80;;;2.67;;
12222;SDS011;6174;49.058;8.524;2023-07-31T07:38:28;4.23;;;2.30;;
12222;SDS011;6174;49.058;8.524;2023-07-31T07:40:55;2.10;;;1.90;;
12222;SDS011;6174;49.058;8.524;2023-07-31T07:43:21;2.70;;;2.13;;
12222;SDS011;6174;49.058;8.524;2023-07-31T07:45:48;2.87;;;2.00;;
12222;SDS011;6174;49.058;8.524;2023-07-31T07:48:16;2.70;;;2.00;;
12222;SDS011;6174;49.058;8.524;2023-07-31T07:50:43;3.33;;;1.97;;
12222;SDS011;6174;49.058;8.524;2023-07-31T07:53:11;3.00;;;1.90;;
12222;SDS011;6174;49.058;8.524;2023-07-31T07:55:38;4.80;;;2.60;;
12222;SDS011;6174;49.058;8.524;2023-07-31T07:58:05;2.83;;;2.10;;
12222;SDS011;6174;49.058;8.524;2023-07-31T08:00:32;3.63;;;2.30;;
12222;SDS011;6174;49.058;8.524;2023-07-31T08:02:59;2.33;;;2.03;;
12222;SDS011;6174;49.058;8.524;2023-07-31T08:05:25;3.87;;;2.10;;
12222;SDS011;6174;49.058;8.524;2023-07-31T08:07:52;3.73;;;2.50;;
12222;SDS011;6174;49.058;8.524;2023-07-31T08:10:20;1.97;;;1.80;;
12222;SDS011;6174;49.058;8.524;2023-07-31T08:12:47;4.83;;;2.30;;
12222;SDS011;6174;49.058;8.524;2023-07-31T08:15:14;3.80;;;2.43;;
12222;SDS011;6174;49.058;8.524;2023-07-31T08:17:41;3.20;;;2.23;;
12222;SDS011;6174;49.058;8.524;2023-07-31T08:20:08;4.57;;;2.47;;
12222;SDS011;6174;49.058;8.524;2023-07-31T08:22:35;3.07;;;2.27;;
12222;SDS011;6174;49.058;8.524;2023-07-31T08:25:02;2.83;;;2.23;;
12222;SDS011;6174;49.058;8.524;2023-07-31T08:27:32;3.40;;;2.10;;
12222;SDS011;6174;49.058;8.524;2023-07-31T08:29:58;4.23;;;2.30;;
12222;SDS011;6174;49.058;8.524;2023-07-31T08:32:25;3.60;;;2.40;;
12222;SDS011;6174;49.058;8.524;2023-07-31T08:34:52;4.53;;;2.40;;
12222;SDS011;6174;49.058;8.524;2023-07-31T08:37:19;3.57;;;2.43;;
12222;SDS011;6174;49.058;8.524;2023-07-31T08:39:45;3.37;;;2.37;;
12222;SDS011;6174;49.058;8.524;2023-07-31T08:42:12;4.30;;;2.30;;
12222;SDS011;6174;49.058;8.524;2023-07-31T08:44:40;7.27;;;2.40;;
12222;SDS011;6174;49.058;8.524;2023-07-31T08:47:08;4.40;;;2.50;;
12222;SDS011;6174;49.058;8.524;2023-07-31T08:49:36;4.30;;;2.30;;
12222;SDS011;6174;49.058;8.524;2023-07-31T08:52:05;4.33;;;2.30;;
12222;SDS011;6174;49.058;8.524;2023-07-31T08:54:33;4.67;;;2.50;;
12222;SDS011;6174;49.058;8.524;2023-07-31T08:56:59;2.77;;;2.43;;
12222;SDS011;6174;49.058;8.524;2023-07-31T08:59:26;3.80;;;2.33;;
12222;SDS011;6174;49.058;8.524;2023-07-31T09:01:58;5.03;;;2.77;;
12222;SDS011;6174;49.058;8.524;2023-07-31T09:04:29;3.77;;;2.20;;
12222;SDS011;6174;49.058;8.524;2023-07-31T09:06:59;3.50;;;2.70;;
12222;SDS011;6174;49.058;8.524;2023-07-31T09:09:29;4.90;;;2.47;;
12222;SDS011;6174;49.058;8.524;2023-07-31T09:11:56;6.43;;;2.40;;
12222;SDS011;6174;49.058;8.524;2023-07-31T09:14:24;3.23;;;2.27;;
12222;SDS011;6174;49.058;8.524;2023-07-31T09:16:52;5.20;;;2.47;;
12222;SDS011;6174;49.058;8.524;2023-07-31T09:19:31;3.77;;;2.60;;
12222;SDS011;6174;49.058;8.524;2023-07-31T09:21:59;4.60;;;2.60;;
12222;SDS011;6174;49.058;8.524;2023-07-31T09:24:26;3.57;;;2.60;;
12222;SDS011;6174;49.058;8.524;2023-07-31T09:26:55;3.17;;;2.13;;
12222;SDS011;6174;49.058;8.524;2023-07-31T09:29:23;3.27;;;2.33;;
12222;SDS011;6174;49.058;8.524;2023-07-31T09:31:51;4.00;;;2.90;;
12222;SDS011;6174;49.058;8.524;2023-07-31T09:34:19;4.47;;;2.30;;
12222;SDS011;6174;49.058;8.524;2023-07-31T09:36:48;3.80;;;2.50;;
12222;SDS011;6174;49.058;8.524;2023-07-31T09:39:15;3.77;;;2.50;;
12222;SDS011;6174;49.058;8.524;2023-07-31T09:41:46;4.57;;;2.40;;
12222;SDS011;6174;49.058;8.524;2023-07-31T09:44:14;4.53;;;2.43;;
12222;SDS011;6174;49.058;8.524;2023-07-31T09:46:41;3.80;;;2.50;;
12222;SDS011;6174;49.058;8.524;2023-07-31T09:49:08;2.70;;;2.17;;
12222;SDS011;6174;49.058;8.524;2023-07-31T09:51:35;5.73;;;2.57;;
12222;SDS011;6174;49.058;8.524;2023-07-31T09:54:09;4.40;;;2.73;;
12222;SDS011;6174;49.058;8.524;2023-07-31T09:56:39;3.33;;;2.33;;
12222;SDS011;6174;49.058;8.524;2023-07-31T09:59:09;2.70;;;2.20;;
12222;SDS011;6174;49.058;8.524;2023-07-31T10:01:38;3.33;;;2.47;;
12222;SDS011;6174;49.058;8.524;2023-07-31T10:04:05;3.07;;;2.57;;
12222;SDS011;6174;49.058;8.524;2023-07-31T10:06:34;6.47;;;2.77;;
12222;SDS011;6174;49.058;8.524;2023-07-31T10:09:01;5.13;;;2.80;;
12222;SDS011;6174;49.058;8.524;2023-07-31T10:11:30;3.83;;;2.30;;
12222;SDS011;6174;49.058;8.524;2023-07-31T10:14:03;3.30;;;2.30;;
12222;SDS011;6174;49.058;8.524;2023-07-31T10:16:31;3.30;;;2.60;;
12222;SDS011;6174;49.058;8.524;2023-07-31T10:18:58;3.77;;;2.47;;
12222;SDS011;6174;49.058;8.524;2023-07-31T10:21:30;5.27;;;2.93;;
12222;SDS011;6174;49.058;8.524;2023-07-31T10:24:01;4.53;;;2.50;;
12222;SDS011;6174;49.058;8.524;2023-07-31T10:26:40;4.77;;;2.37;;
12222;SDS011;6174;49.058;8.524;2023-07-31T10:29:25;4.77;;;2.77;;
12222;SDS011;6174;49.058;8.524;2023-07-31T10:32:01;3.83;;;2.80;;
12222;SDS011;6174;49.058;8.524;2023-07-31T10:34:48;4.50;;;2.47;;
12222;SDS011;6174;49.058;8.524;2023-07-31T10:37:19;6.07;;;2.80;;
12222;SDS011;6174;49.058;8.524;2023-07-31T10:39:54;3.53;;;2.50;;
12222;SDS011;6174;49.058;8.524;2023-07-31T10:42:31;7.00;;;2.80;;
12222;SDS011;6174;49.058;8.524;2023-07-31T10:45:00;3.83;;;2.70;;
12222;SDS011;6174;49.058;8.524;2023-07-31T10:47:29;4.53;;;2.87;;
12222;SDS011;6174;49.058;8.524;2023-07-31T10:52:38;6.80;;;2.80;;
12222;SDS011;6174;49.058;8.524;2023-07-31T10:55:25;4.23;;;2.70;;
12222;SDS011;6174;49.058;8.524;2023-07-31T10:57:57;3.40;;;2.43;;
12222;SDS011;6174;49.058;8.524;2023-07-31T11:00:31;4.33;;;2.70;;
12222;SDS011;6174;49.058;8.524;2023-07-31T11:03:04;4.57;;;2.70;;
12222;SDS011;6174;49.058;8.524;2023-07-31T11:05:42;3.60;;;2.53;;
12222;SDS011;6174;49.058;8.524;2023-07-31T11:08:27;5.07;;;2.80;;
12222;SDS011;6174;49.058;8.524;2023-07-31T11:11:04;5.00;;;2.73;;
12222;SDS011;6174;49.058;8.524;2023-07-31T11:13:39;3.60;;;2.40;;
12222;SDS011;6174;49.058;8.524;2023-07-31T11:16:10;5.33;;;2.77;;
12222;SDS011;6174;49.058;8.524;2023-07-31T11:18:39;4.77;;;3.00;;
12222;SDS011;6174;49.058;8.524;2023-07-31T11:21:07;5.17;;;2.87;;
12222;SDS011;6174;49.058;8.524;2023-07-31T11:23:36;5.17;;;3.00;;
12222;SDS011;6174;49.058;8.524;2023-07-31T11:26:06;3.70;;;3.07;;
12222;SDS011;6174;49.058;8.524;2023-07-31T11:28:37;5.47;;;3.00;;
12222;SDS011;6174;49.058;8.524;2023-07-31T11:31:04;4.30;;;2.80;;
12222;SDS011;6174;49.058;8.524;2023-07-31T11:33:31;4.37;;;2.53;;
12222;SDS011;6174;49.058;8.524;2023-07-31T11:35:58;5.77;;;2.97;;
12222;SDS011;6174;49.058;8.524;2023-07-31T11:38:25;4.37;;;2.63;;
12222;SDS011;6174;49.058;8.524;2023-07-31T11:40:53;3.97;;;3.13;;
12222;SDS011;6174;49.058;8.524;2023-07-31T11:43:25;4.87;;;2.83;;
12222;SDS011;6174;49.058;8.524;2023-07-31T11:45:54;3.53;;;2.43;;
12222;SDS011;6174;49.058;8.524;2023-07-31T11:48:23;4.60;;;3.03;;
12222;SDS011;6174;49.058;8.524;2023-07-31T11:50:52;3.57;;;2.57;;
12222;SDS011;6174;49.058;8.524;2023-07-31T11:53:22;4.07;;;2.70;;
12222;SDS011;6174;49.058;8.524;2023-07-31T11:55:54;4.03;;;2.43;;
12222;SDS011;6174;49.058;8.524;2023-07-31T11:58:21;4.23;;;2.60;;
12222;SDS011;6174;49.058;8.524;2023-07-31T12:00:49;5.73;;;3.00;;
12222;SDS011;6174;49.058;8.524;2023-07-31T12:03:17;4.97;;;2.60;;
12222;SDS011;6174;49.058;8.524;2023-07-31T12:05:45;4.43;;;2.80;;
12222;SDS011;6174;49.058;8.524;2023-07-31T12:08:13;4.70;;;3.17;;
12222;SDS011;6174;49.058;8.524;2023-07-31T12:10:41;3.50;;;2.50;;
12222;SDS011;6174;49.058;8.524;2023-07-31T12:13:11;6.57;;;3.20;;
12222;SDS011;6174;49.058;8.524;2023-07-31T12:15:45;3.87;;;2.87;;
12222;SDS011;6174;49.058;8.524;2023-07-31T12:18:15;4.90;;;2.70;;
12222;SDS011;6174;49.058;8.524;2023-07-31T12:20:46;4.97;;;2.63;;
12222;SDS011;6174;49.058;8.524;2023-07-31T12:23:14;5.80;;;2.97;;
12222;SDS011;6174;49.058;8.524;2023-07-31T12:25:42;4.23;;;2.67;;
12222;SDS011;6174;49.058;8.524;2023-07-31T12:28:09;3.90;;;2.77;;
12222;SDS011;6174;49.058;8.524;2023-07-31T12:30:37;6.17;;;2.80;;
12222;SDS011;6174;49.058;8.524;2023-07-31T12:33:05;3.47;;;2.43;;
12222;SDS011;6174;49.058;8.524;2023-07-31T12:35:41;2.97;;;2.67;;
12222;SDS011;6174;49.058;8.524;2023-07-31T12:38:10;5.23;;;3.07;;
12222;SDS011;6174;49.058;8.524;2023-07-31T12:40:38;4.07;;;2.60;;
12222;SDS011;6174;49.058;8.524;2023-07-31T12:43:05;4.53;;;2.90;;
12222;SDS011;6174;49.058;8.524;2023-07-31T12:45:33;5.60;;;2.70;;
12222;SDS011;6174;49.058;8.524;2023-07-31T12:48:00;4.73;;;2.57;;
12222;SDS011;6174;49.058;8.524;2023-07-31T12:50:27;4.40;;;2.80;;
12222;SDS011;6174;49.058;8.524;2023-07-31T12:52:55;5.13;;;2.70;;
12222;SDS011;6174;49.058;8.524;2023-07-31T12:55:22;4.90;;;2.53;;
12222;SDS011;6174;49.058;8.524;2023-07-31T12:57:50;6.23;;;3.00;;
12222;SDS011;6174;49.058;8.524;2023-07-31T13:00:17;3.70;;;2.43;;
12222;SDS011;6174;49.058;8.524;2023-07-31T13:02:44;3.77;;;2.43;;
12222;SDS011;6174;49.058;8.524;2023-07-31T13:05:11;4.57;;;2.67;;
12222;SDS011;6174;49.058;8.524;2023-07-31T13:07:39;6.13;;;2.80;;
12222;SDS011;6174;49.058;8.524;2023-07-31T13:10:07;4.10;;;2.63;;
12222;SDS011;6174;49.058;8.524;2023-07-31T13:12:35;3.07;;;2.40;;
12222;SDS011;6174;49.058;8.524;2023-07-31T13:15:04;3.87;;;2.83;;
12222;SDS011;6174;49.058;8.524;2023-07-31T13:17:31;3.87;;;2.80;;
12222;SDS011;6174;49.058;8.524;2023-07-31T13:19:58;4.23;;;2.80;;
12222;SDS011;6174;49.058;8.524;2023-07-31T13:22:25;3.37;;;2.47;;
12222;SDS011;6174;49.058;8.524;2023-07-31T13:24:52;3.73;;;2.47;;
12222;SDS011;6174;49.058;8.524;2023-07-31T13:27:20;3.57;;;2.70;;
12222;SDS011;6174;49.058;8.524;2023-07-31T13:29:47;3.40;;;2.60;;
12222;SDS011;6174;49.058;8.524;2023-07-31T13:32:15;3.43;;;2.43;;
12222;SDS011;6174;49.058;8.524;2023-07-31T13:34:43;3.73;;;2.50;;
12222;SDS011;6174;49.058;8.524;2023-07-31T13:37:09;3.60;;;2.80;;
12222;SDS011;6174;49.058;8.524;2023-07-31T13:39:36;3.67;;;2.60;;
12222;SDS011;6174;49.058;8.524;2023-07-31T13:42:03;2.90;;;2.43;;
12222;SDS011;6174;49.058;8.524;2023-07-31T13:44:33;3.27;;;2.60;;
12222;SDS011;6174;49.058;8.524;2023-07-31T13:47:00;4.93;;;2.60;;
12222;SDS011;6174;49.058;8.524;2023-07-31T13:49:26;3.80;;;2.50;;
12222;SDS011;6174;49.058;8.524;2023-07-31T13:51:53;3.30;;;2.50;;
12222;SDS011;6174;49.058;8.524;2023-07-31T13:54:20;3.60;;;2.57;;
12222;SDS011;6174;49.058;8.524;2023-07-31T13:56:48;5.47;;;2.53;;
12222;SDS011;6174;49.058;8.524;2023-07-31T13:59:14;3.80;;;2.60;;
12222;SDS011;6174;49.058;8.524;2023-07-31T14:01:43;5.10;;;2.60;;
12222;SDS011;6174;49.058;8.524;2023-07-31T14:04:10;5.47;;;2.70;;
12222;SDS011;6174;49.058;8.524;2023-07-31T14:06:37;3.57;;;2.40;;
12222;SDS011;6174;49.058;8.524;2023-07-31T14:09:04;4.43;;;2.50;;
12222;SDS011;6174;49.058;8.524;2023-07-31T14:11:31;3.87;;;2.77;;
12222;SDS011;6174;49.058;8.524;2023-07-31T14:13:59;3.17;;;2.60;;
12222;SDS011;6174;49.058;8.524;2023-07-31T14:16:27;3.80;;;2.47;;
12222;SDS011;6174;49.058;8.524;2023-07-31T14:18:55;4.13;;;2.60;;
12222;SDS011;6174;49.058;8.524;2023-07-31T14:21:24;4.60;;;2.60;;
12222;SDS011;6174;49.058;8.524;2023-07-31T14:23:51;3.30;;;2.73;;
12222;SDS011;6174;49.058;8.524;2023-07-31T14:26:18;5.40;;;2.93;;
12222;SDS011;6174;49.058;8.524;2023-07-31T14:28:44;5.50;;;3.13;;
12222;SDS011;6174;49.058;8.524;2023-07-31T14:31:11;5.87;;;2.83;;
12222;SDS011;6174;49.058;8.524;2023-07-31T14:33:38;4.30;;;2.80;;
12222;SDS011;6174;49.058;8.524;2023-07-31T14:36:06;4.17;;;2.63;;
12222;SDS011;6174;49.058;8.524;2023-07-31T14:38:33;3.90;;;2.40;;
12222;SDS011;6174;49.058;8.524;2023-07-31T14:41:00;3.93;;;2.23;;
12222;SDS011;6174;49.058;8.524;2023-07-31T14:43:27;5.53;;;2.67;;
12222;SDS011;6174;49.058;8.524;2023-07-31T14:45:53;5.37;;;2.80;;
12222;SDS011;6174;49.058;8.524;2023-07-31T14:48:22;5.73;;;2.80;;
12222;SDS011;6174;49.058;8.524;2023-07-31T14:50:49;4.40;;;2.70;;
12222;SDS011;6174;49.058;8.524;2023-07-31T14:53:17;3.83;;;2.50;;
12222;SDS011;6174;49.058;8.524;2023-07-31T14:55:44;3.13;;;2.60;;
12222;SDS011;6174;49.058;8.524;2023-07-31T14:58:11;3.40;;;2.40;;
12222;SDS011;6174;49.058;8.524;2023-07-31T15:00:38;3.60;;;2.60;;
12222;SDS011;6174;49.058;8.524;2023-07-31T15:03:05;4.15;;;2.70;;
12222;SDS011;6174;49.058;8.524;2023-07-31T15:05:32;3.80;;;2.40;;
12222;SDS011;6174;49.058;8.524;2023-07-31T15:07:59;5.68;;;2.53;;
12222;SDS011;6174;49.058;8.524;2023-07-31T15:10:27;3.67;;;2.58;;
12222;SDS011;6174;49.058;8.524;2023-07-31T15:12:54;3.70;;;2.75;;
12222;SDS011;6174;49.058;8.524;2023-07-31T15:15:20;3.03;;;2.43;;
12222;SDS011;6174;49.058;8.524;2023-07-31T15:17:47;3.70;;;2.30;;
12222;SDS011;6174;49.058;8.524;2023-07-31T15:20:14;3.63;;;2.70;;
12222;SDS011;6174;49.058;8.524;2023-07-31T15:22:41;3.55;;;2.53;;
12222;SDS011;6174;49.058;8.524;2023-07-31T15:25:08;4.38;;;3.08;;
12222;SDS011;6174;49.058;8.524;2023-07-31T15:27:36;3.42;;;2.47;;
12222;SDS011;6174;49.058;8.524;2023-07-31T15:30:03;4.53;;;3.05;;
12222;SDS011;6174;49.058;8.524;2023-07-31T15:32:31;4.63;;;3.10;;
12222;SDS011;6174;49.058;8.524;2023-07-31T15:34:58;4.50;;;2.63;;
12222;SDS011;6174;49.058;8.524;2023-07-31T15:37:25;4.43;;;2.95;;
12222;SDS011;6174;49.058;8.524;2023-07-31T15:39:52;4.25;;;2.78;;
12222;SDS011;6174;49.058;8.524;2023-07-31T15:42:18;5.45;;;3.13;;
12222;SDS011;6174;49.058;8.524;2023-07-31T15:44:47;3.60;;;2.78;;
12222;SDS011;6174;49.058;8.524;2023-07-31T15:47:13;4.10;;;2.80;;
12222;SDS011;6174;49.058;8.524;2023-07-31T15:49:40;3.92;;;2.42;;
12222;SDS011;6174;49.058;8.524;2023-07-31T15:52:07;5.32;;;2.45;;
12222;SDS011;6174;49.058;8.524;2023-07-31T15:54:34;3.63;;;2.60;;
12222;SDS011;6174;49.058;8.524;2023-07-31T15:57:01;4.40;;;2.80;;
12222;SDS011;6174;49.058;8.524;2023-07-31T15:59:28;4.10;;;2.97;;
12222;SDS011;6174;49.058;8.524;2023-07-31T16:01:56;4.93;;;3.17;;
12222;SDS011;6174;49.058;8.524;2023-07-31T16:04:23;3.22;;;2.90;;
12222;SDS011;6174;49.058;8.524;2023-07-31T16:06:50;3.20;;;2.65;;
12222;SDS011;6174;49.058;8.524;2023-07-31T16:09:17;3.58;;;2.58;;
12222;SDS011;6174;49.058;8.524;2023-07-31T16:11:44;3.70;;;2.80;;
12222;SDS011;6174;49.058;8.524;2023-07-31T16:14:11;4.13;;;2.60;;
12222;SDS011;6174;49.058;8.524;2023-07-31T16:16:41;4.28;;;2.50;;
12222;SDS011;6174;49.058;8.524;2023-07-31T16:19:09;3.97;;;2.60;;
12222;SDS011;6174;49.058;8.524;2023-07-31T16:21:36;4.57;;;2.50;;
12222;SDS011;6174;49.058;8.524;2023-07-31T16:24:03;4.37;;;2.60;;
12222;SDS011;6174;49.058;8.524;2023-07-31T16:26:30;3.67;;;2.50;;
12222;SDS011;6174;49.058;8.524;2023-07-31T16:28:58;3.13;;;2.60;;
12222;SDS011;6174;49.058;8.524;2023-07-31T16:31:25;3.80;;;2.90;;
12222;SDS011;6174;49.058;8.524;2023-07-31T16:33:52;3.30;;;2.80;;
12222;SDS011;6174;49.058;8.524;2023-07-31T16:36:24;3.63;;;2.67;;
12222;SDS011;6174;49.058;8.524;2023-07-31T16:38:59;3.40;;;2.70;;
12222;SDS011;6174;49.058;8.524;2023-07-31T16:41:26;3.20;;;2.63;;
12222;SDS011;6174;49.058;8.524;2023-07-31T16:43:53;4.83;;;3.07;;
12222;SDS011;6174;49.058;8.524;2023-07-31T16:46:20;6.23;;;2.67;;
12222;SDS011;6174;49.058;8.524;2023-07-31T16:48:47;3.45;;;3.00;;
12222;SDS011;6174;49.058;8.524;2023-07-31T16:51:14;3.77;;;2.43;;
12222;SDS011;6174;49.058;8.524;2023-07-31T16:53:42;3.60;;;2.40;;
12222;SDS011;6174;49.058;8.524;2023-07-31T16:56:09;3.63;;;2.70;;
12222;SDS011;6174;49.058;8.524;2023-07-31T16:58:35;3.73;;;3.10;;
12222;SDS011;6174;49.058;8.524;2023-07-31T17:01:02;3.50;;;2.80;;
12222;SDS011;6174;49.058;8.524;2023-07-31T17:03:29;2.77;;;2.57;;
12222;SDS011;6174;49.058;8.524;2023-07-31T17:05:56;3.87;;;2.93;;
12222;SDS011;6174;49.058;8.524;2023-07-31T17:08:23;3.97;;;3.10;;
12222;SDS011;6174;49.058;8.524;2023-07-31T17:10:51;3.60;;;2.90;;
12222;SDS011;6174;49.058;8.524;2023-07-31T17:13:18;3.50;;;2.93;;
12222;SDS011;6174;49.058;8.524;2023-07-31T17:15:45;3.70;;;2.80;;
12222;SDS011;6174;49.058;8.524;2023-07-31T17:18:11;3.77;;;3.40;;
12222;SDS011;6174;49.058;8.524;2023-07-31T17:20:39;3.63;;;3.20;;
12222;SDS011;6174;49.058;8.524;2023-07-31T17:23:06;6.57;;;3.30;;
12222;SDS011;6174;49.058;8.524;2023-07-31T17:25:33;4.63;;;3.20;;
12222;SDS011;6174;49.058;8.524;2023-07-31T17:28:01;5.83;;;3.40;;
12222;SDS011;6174;49.058;8.524;2023-07-31T17:30:28;3.80;;;3.30;;
12222;SDS011;6174;49.058;8.524;2023-07-31T17:32:54;3.20;;;2.90;;
12222;SDS011;6174;49.058;8.524;2023-07-31T17:35:21;6.07;;;3.70;;
12222;SDS011;6174;49.058;8.524;2023-07-31T17:37:50;5.47;;;4.10;;
12222;SDS011;6174;49.058;8.524;2023-07-31T17:40:17;3.90;;;3.53;;
12222;SDS011;6174;49.058;8.524;2023-07-31T17:42:44;6.00;;;3.50;;
12222;SDS011;6174;49.058;8.524;2023-07-31T17:45:12;5.60;;;3.20;;
12222;SDS011;6174;49.058;8.524;2023-07-31T17:47:39;3.87;;;2.97;;
12222;SDS011;6174;49.058;8.524;2023-07-31T17:50:06;5.27;;;3.53;;
12222;SDS011;6174;49.058;8.524;2023-07-31T17:52:33;6.37;;;3.40;;
12222;SDS011;6174;49.058;8.524;2023-07-31T17:55:00;4.77;;;3.57;;
12222;SDS011;6174;49.058;8.524;2023-07-31T17:57:41;5.87;;;3.47;;
12222;SDS011;6174;49.058;8.524;2023-07-31T18:00:22;4.83;;;4.00;;
12222;SDS011;6174;49.058;8.524;2023-07-31T18:02:49;4.47;;;3.40;;
12222;SDS011;6174;49.058;8.524;2023-07-31T18:05:16;3.90;;;3.50;;
12222;SDS011;6174;49.058;8.524;2023-07-31T18:07:43;6.37;;;3.57;;
12222;SDS011;6174;49.058;8.524;2023-07-31T18:10:09;4.93;;;3.53;;
12222;SDS011;6174;49.058;8.524;2023-07-31T18:12:36;5.23;;;3.50;;
12222;SDS011;6174;49.058;8.524;2023-07-31T18:15:03;5.60;;;3.60;;
12222;SDS011;6174;49.058;8.524;2023-07-31T18:17:32;6.03;;;4.17;;
12222;SDS011;6174;49.058;8.524;2023-07-31T18:19:59;4.90;;;3.67;;
12222;SDS011;6174;49.058;8.524;2023-07-31T18:22:25;7.83;;;3.70;;
12222;SDS011;6174;49.058;8.524;2023-07-31T18:24:52;3.93;;;3.60;;
12222;SDS011;6174;49.058;8.524;2023-07-31T18:27:19;6.40;;;3.70;;
12222;SDS011;6174;49.058;8.524;2023-07-31T18:29:46;3.77;;;3.30;;
12222;SDS011;6174;49.058;8.524;2023-07-31T18:32:12;5.30;;;3.73;;
12222;SDS011;6174;49.058;8.524;2023-07-31T18:34:40;5.53;;;3.47;;
12222;SDS011;6174;49.058;8.524;2023-07-31T18:37:07;5.80;;;3.90;;
12222;SDS011;6174;49.058;8.524;2023-07-31T18:39:34;6.77;;;4.07;;
12222;SDS011;6174;49.058;8.524;2023-07-31T18:42:01;5.90;;;3.83;;
12222;SDS011;6174;49.058;8.524;2023-07-31T18:44:28;5.03;;;4.10;;
12222;SDS011;6174;49.058;8.524;2023-07-31T18:46:54;7.17;;;4.63;;
12222;SDS011;6174;49.058;8.524;2023-07-31T18:49:22;5.07;;;3.80;;
12222;SDS011;6174;49.058;8.524;2023-07-31T18:51:50;4.83;;;3.83;;
12222;SDS011;6174;49.058;8.524;2023-07-31T18:54:17;6.13;;;3.63;;
12222;SDS011;6174;49.058;8.524;2023-07-31T18:56:44;5.90;;;3.93;;
12222;SDS011;6174;49.058;8.524;2023-07-31T18:59:11;5.87;;;4.20;;
12222;SDS011;6174;49.058;8.524;2023-07-31T19:01:38;5.33;;;3.93;;
12222;SDS011;6174;49.058;8.524;2023-07-31T19:04:08;6.43;;;4.00;;
12222;SDS011;6174;49.058;8.524;2023-07-31T19:06:35;5.30;;;4.07;;
12222;SDS011;6174;49.058;8.524;2023-07-31T19:09:05;4.80;;;4.00;;
12222;SDS011;6174;49.058;8.524;2023-07-31T19:11:32;5.03;;;3.83;;
12222;SDS011;6174;49.058;8.524;2023-07-31T19:13:59;4.40;;;3.77;;
12222;SDS011;6174;49.058;8.524;2023-07-31T19:16:26;4.80;;;3.93;;
12222;SDS011;6174;49.058;8.524;2023-07-31T19:18:53;5.03;;;3.83;;
12222;SDS011;6174;49.058;8.524;2023-07-31T19:21:20;5.67;;;3.90;;
12222;SDS011;6174;49.058;8.524;2023-07-31T19:23:46;5.10;;;3.73;;
12222;SDS011;6174;49.058;8.524;2023-07-31T19:26:14;6.10;;;3.70;;
12222;SDS011;6174;49.058;8.524;2023-07-31T19:28:43;4.00;;;3.47;;
12222;SDS011;6174;49.058;8.524;2023-07-31T19:31:10;6.87;;;3.80;;
12222;SDS011;6174;49.058;8.524;2023-07-31T19:33:37;6.43;;;4.10;;
12222;SDS011;6174;49.058;8.524;2023-07-31T19:36:04;4.77;;;3.60;;
12222;SDS011;6174;49.058;8.524;2023-07-31T19:38:30;4.83;;;3.93;;
12222;SDS011;6174;49.058;8.524;2023-07-31T19:40:58;4.23;;;3.30;;
12222;SDS011;6174;49.058;8.524;2023-07-31T19:43:28;5.00;;;3.77;;
12222;SDS011;6174;49.058;8.524;2023-07-31T19:45:54;5.07;;;3.30;;
12222;SDS011;6174;49.058;8.524;2023-07-31T19:48:21;4.73;;;3.90;;
12222;SDS011;6174;49.058;8.524;2023-07-31T19:50:48;4.93;;;3.57;;
12222;SDS011;6174;49.058;8.524;2023-07-31T19:53:14;4.57;;;3.47;;
12222;SDS011;6174;49.058;8.524;2023-07-31T19:55:41;4.73;;;3.47;;
12222;SDS011;6174;49.058;8.524;2023-07-31T19:58:07;3.63;;;3.30;;
12222;SDS011;6174;49.058;8.524;2023-07-31T20:00:36;4.77;;;3.57;;
12222;SDS011;6174;49.058;8.524;2023-07-31T20:03:02;5.23;;;3.90;;
12222;SDS011;6174;49.058;8.524;2023-07-31T20:05:29;4.40;;;3.13;;
12222;SDS011;6174;49.058;8.524;2023-07-31T20:07:56;4.50;;;3.57;;